Latest Coastal Weather Observations for Tewantin

IDQ60701

Issued at 9:42 pm EST Tuesday 21 November 2017 (issued every 10 minutes, with the page automatically refreshed every 10 minutes)

About coastal observations | Map of coastal stations | Coastal observations for QLD | Marine services | Other Formats
Station Details ID: 040908 Name: TEWANTIN RSL PARK Lat: -26.39 Lon: 153.04 Height: 6.4 m
Data from the previous 72 hours. | See also: Recent months at Tewantin
Date/Time
EST
Temp
°C
Wind Pressure Rain since
9am
mm
Weather Cloud Vis
km
Sea
Height
m
Swell
Dir  Spd
kts
Gust
kts
hPa Trend Height
m
Period
s
Dir
21/09:30pm 19.0 SSW 6 8 1017.7 - 1.0 - - - - - - -
21/09:00pm 18.8 SSW 7 11 1017.9 - 1.0 - - - - - - -
21/08:30pm 18.3 SSW 5 9 1017.9 - 1.0 - - - - - - -
21/08:00pm 18.5 SSW 8 13 1017.8 - 1.0 - - - - - - -
21/07:30pm 19.3 S 10 15 1017.8 - 1.0 - - - - - - -
21/07:00pm 20.5 S 10 17 1017.6 - 1.0 - - - - - - -
21/06:30pm 21.5 SE 7 12 1017.2 - 1.0 - - - - - - -
21/06:00pm 21.7 SE 9 15 1017.3 - 1.0 - - - - - - -
21/05:30pm 21.9 SE 6 10 1017.0 - 1.0 - - - - - - -
21/05:00pm 22.1 SE 9 15 1016.6 - 1.0 - - - - - - -
21/04:30pm 22.4 SE 11 20 1016.3 - 1.0 - - - - - - -
21/04:00pm 22.7 ESE 12 21 1016.3 - 1.0 - - - - - - -
21/03:30pm 23.1 SE 11 18 1016.3 - 1.0 - - - - - - -
21/03:00pm 23.0 SE 10 20 1016.5 - 1.0 - - - - - - -
21/02:30pm 22.9 ESE 11 17 1016.6 - 1.0 - - - - - - -
21/02:00pm 22.9 SE 11 17 1016.9 - 1.0 - - - - - - -
21/01:30pm 23.5 SE 12 18 1017.2 - 1.0 - - - - - - -
21/01:00pm 23.5 SE 11 18 1017.4 - 1.0 - - - - - - -
21/12:30pm 23.4 SE 11 19 1017.9 - 1.0 - - - - - - -
21/12:00pm 24.1 SE 10 17 1017.7 - 1.0 - - - - - - -
21/11:30am 23.6 SE 10 16 1017.9 - 1.0 - - - - - - -
21/11:00am 22.1 ESE 8 14 1018.2 - 1.0 - - - - - - -
21/10:30am 21.5 SSE 6 9 1018.3 - 1.0 - - - - - - -
21/10:00am 20.5 SSW 6 10 1018.5 - 1.0 - - - - - - -
21/09:30am 19.1 ESE 9 15 1018.6 - 0.8 - - - - - - -
21/09:00am 20.2 SSE 9 15 1018.6 - 2.8 Rain - - - - - -
21/08:30am 22.0 S 9 14 1018.2 - 2.2 - - - - - - -
21/08:00am 21.3 SSE 10 19 1018.3 - 2.2 - - - - - - -
21/07:30am 20.0 SSW 7 10 1018.3 - 2.2 - - - - - - -
21/07:00am 18.6 S 7 11 1018.3 - 2.2 - - - - - - -
21/06:30am 18.2 SW 7 10 1017.8 - 2.2 - - - - - - -
21/06:00am 18.1 SSW 3 6 1017.7 - 2.2 Rain - - - - - -
21/05:30am 18.0 N 3 9 1017.5 - 1.4 - - - - - - -
21/05:00am 17.7 S 4 8 1017.1 - 0.6 - - - - - - -
21/04:30am 17.6 SSW 9 13 1016.7 - 0.2 - - - - - - -
21/04:00am 17.8 SSW 7 10 1016.6 - 0.2 - - - - - - -
21/03:30am 17.7 SSW 6 8 1016.5 - 0.2 - - - - - - -
21/03:00am 18.0 S 3 5 1016.6 - 0.2 Recent precip. - - - - - -
21/02:30am 18.2 S 7 9 1016.7 - 0.0 - - - - - - -
21/02:00am 18.1 SSW 6 9 1016.9 - 0.0 - - - - - - -
21/01:30am 18.3 SSW 5 8 1017.1 - 0.0 - - - - - - -
21/01:00am 18.2 SSW 6 8 1017.2 - 0.0 - - - - - - -
21/12:30am 18.4 SSW 6 8 1017.4 - 0.0 - - - - - - -
21/12:00am 18.7 S 7 10 1017.8 - 0.0 - - - - - - -
 
Date/Time
EST
Temp
°C
Wind Pressure Rain since
9am
mm
Weather Cloud Vis
km
Sea
Height
m
Swell
Dir  Spd
kts
Gust
kts
hPa Trend Height
m
Period
s
Dir
20/11:30pm 18.9 S 6 10 1018.3 - 0.0 - - - - - - -
20/11:00pm 19.2 S 5 10 1018.6 - 0.0 - - - - - - -
20/10:30pm 19.4 SSW 5 8 1018.7 - 0.0 - - - - - - -
20/10:00pm 19.9 S 8 12 1018.9 - 0.0 - - - - - - -
20/09:30pm 19.8 ESE 11 20 1019.0 - 0.0 - - - - - - -
20/09:00pm 21.5 SSE 7 11 1019.1 - 0.0 - - - - - - -
20/08:30pm 21.6 SSE 6 12 1019.1 - 0.0 - - - - - - -
20/08:00pm 21.5 SSE 6 11 1018.8 - 0.0 - - - - - - -
20/07:30pm 21.6 SE 8 13 1018.5 - 0.0 - - - - - - -
20/07:00pm 21.6 SE 7 12 1018.3 - 0.0 - - - - - - -
20/06:30pm 21.8 SE 10 15 1018.2 - 0.0 - - - - - - -
20/06:00pm 22.1 ESE 9 16 1018.0 - 0.0 - - - - - - -
20/05:30pm 22.4 SE 9 14 1017.9 - 0.0 - - - - - - -
20/05:00pm 22.7 SE 8 16 1017.7 - 0.0 - - - - - - -
20/04:30pm 22.6 SE 10 17 1017.5 - 0.0 - - - - - - -
20/04:00pm 22.7 SE 10 14 1017.5 - 0.0 - - - - - - -
20/03:30pm 23.1 SE 11 19 1017.4 - 0.0 - - - - - - -
20/03:00pm 23.5 SE 11 18 1017.6 - 0.0 - - - - - - -
20/02:30pm 23.9 SE 11 17 1017.5 - 0.0 - - - - - - -
20/02:00pm 23.4 SE 13 20 1017.9 - 0.0 - - - - - - -
20/01:30pm 23.8 SE 10 18 1018.1 - 0.0 - - - - - - -
20/01:00pm 23.8 SE 13 19 1018.3 - 0.0 - - - - - - -
20/12:30pm 23.5 SE 12 20 1018.6 - 0.0 - - - - - - -
20/12:00pm 23.8 SE 11 18 1018.8 - 0.0 - - - - - - -
20/11:30am 23.1 SE 10 21 1019.0 - 0.0 - - - - - - -
20/11:00am 23.8 ESE 11 16 1019.3 - 0.0 - - - - - - -
20/10:30am 23.8 SE 11 18 1019.3 - 0.0 - - - - - - -
20/10:00am 23.6 SE 9 15 1019.2 - 0.0 - - - - - - -
20/09:30am 23.0 ESE 11 17 1019.1 - 0.0 - - - - - - -
20/09:00am 22.8 SE 9 16 1019.1 - 18.4 - - - - - - -
20/08:30am 22.6 ESE 10 16 1018.9 - 18.4 - - - - - - -
20/08:00am 19.2 S 5 8 1018.8 - 18.4 - - - - - - -
20/07:30am 18.8 S 7 11 1018.7 - 17.4 - - - - - - -
20/07:00am 18.0 S 9 13 1018.5 - 17.2 - - - - - - -
20/06:30am 17.8 S 6 9 1018.1 - 16.0 - - - - - - -
20/06:00am 17.6 S 7 11 1018.0 - 16.0 Rain - - - - - -
20/05:30am 17.6 S 8 12 1017.5 - 15.8 - - - - - - -
20/05:00am 17.6 S 7 11 1017.2 - 15.8 - - - - - - -
20/04:30am 17.8 S 8 12 1017.0 - 15.8 - - - - - - -
20/04:00am 17.8 S 8 13 1016.6 - 15.8 - - - - - - -
20/03:30am 17.6 SSW 4 7 1016.8 - 15.8 - - - - - - -
20/03:00am 17.4 S 6 8 1016.5 - 15.8 - - - - - - -
20/02:30am 17.3 S 5 8 1016.6 - 15.8 - - - - - - -
20/02:00am 17.5 S 5 7 1016.5 - 15.8 - - - - - - -
20/01:30am 17.6 SSW 4 6 1016.7 - 15.8 - - - - - - -
20/01:00am 17.6 SSW 5 6 1016.9 - 15.8 - - - - - - -
20/12:30am 17.9 SSW 5 7 1017.2 - 15.8 - - - - - - -
20/12:00am 17.9 SSW 5 7 1017.4 - 15.8 - - - - - - -
 
Date/Time
EST
Temp
°C
Wind Pressure Rain since
9am
mm
Weather Cloud Vis
km
Sea
Height
m
Swell
Dir  Spd
kts
Gust
kts
hPa Trend Height
m
Period
s
Dir
19/11:30pm 18.2 SSW 6 7 1017.6 - 15.8 - - - - - - -
19/11:00pm 18.6 S 5 8 1017.9 - 15.8 - - - - - - -
19/10:30pm 18.3 SSW 5 6 1018.1 - 15.8 - - - - - - -
19/10:00pm 18.9 S 4 5 1018.4 - 15.8 - - - - - - -
19/09:30pm 18.9 S 3 4 1018.6 - 15.8 - - - - - - -
19/09:00pm 19.2 S 5 6 1018.8 - 15.8 Recent precip. - - - - - -
19/08:30pm 19.4 SSE 6 11 1018.8 - 15.4 - - - - - - -
19/08:00pm 19.2 S 4 5 1018.4 - 15.2 - - - - - - -
19/07:30pm 19.3 E 6 11 1018.4 - 15.2 - - - - - - -
19/07:00pm 19.2 ESE 5 12 1017.9 - 15.0 - - - - - - -
19/06:30pm 20.9 SSE 5 6 1017.5 - 14.6 - - - - - - -
19/06:00pm 21.3 SE 5 9 1017.6 - 14.6 - - - - - - -
19/05:30pm 21.5 ESE 7 13 1017.3 - 14.6 - - - - - - -
19/05:00pm 21.8 ESE 10 17 1016.7 - 14.6 - - - - - - -
19/04:30pm 21.9 ESE 11 19 1016.4 - 14.6 - - - - - - -
19/04:00pm 22.2 SE 12 19 1016.1 - 14.6 - - - - - - -
19/03:30pm 22.4 SE 13 23 1016.0 - 14.6 - - - - - - -
19/03:00pm 22.5 ESE 12 21 1016.1 - 14.6 - - - - - - -
19/02:30pm 22.8 ESE 10 15 1016.2 - 14.6 - - - - - - -
19/02:00pm 23.2 ESE 10 15 1016.4 - 14.6 - - - - - - -
19/01:30pm 23.7 ESE 9 16 1016.8 - 14.6 - - - - - - -
19/01:00pm 23.1 ESE 8 13 1016.9 - 14.6 - - - - - - -
19/12:30pm 22.9 ESE 7 11 1017.1 - 14.6 - - - - - - -
19/12:00pm 21.4 NNW 3 5 1017.5 - 14.6 Recent precip. - - - - - -
19/11:30am 20.1 N 5 6 1017.8 - 14.6 - - - - - - -
19/11:00am 18.8 NE 3 5 1018.1 - 13.6 - - - - - - -
19/10:30am 18.9 SSW 6 8 1018.3 - 11.8 - - - - - - -
19/10:00am 19.7 SW 3 6 1018.4 - 1.2 - - - - - - -
19/09:30am 19.4 NW 4 5 1018.0 - 0.0 - - - - - - -
19/09:00am 18.7 WNW 1 5 1017.9 - 43.4 Recent precip. - - - - - -
19/08:30am 18.7 SW 5 7 1017.4 - 43.4 - - - - - - -
19/08:00am 18.9 ESE 5 7 1017.1 - 40.0 - - - - - - -
19/07:30am 19.2 SSW 5 7 1017.0 - 39.6 - - - - - - -
19/07:00am 18.4 SSE 8 15 1016.4 - 39.6 - - - - - - -
19/06:30am 18.5 SW 3 5 1016.1 - 37.6 - - - - - - -
19/06:00am 18.1 S 6 8 1015.9 - 37.4 Recent precip. - - - - - -
19/05:30am 17.9 ESE 6 12 1015.6 - 37.2 - - - - - - -
19/05:00am 17.0 SSW 5 8 1015.1 - 35.4 - - - - - - -
19/04:30am 16.8 SSW 5 8 1015.0 - 35.4 - - - - - - -
19/04:00am 17.1 S 4 6 1014.6 - 35.4 - - - - - - -
19/03:30am 17.2 SSW 3 5 1014.4 - 35.4 - - - - - - -
19/03:00am 17.2 WSW 4 6 1014.8 - 35.4 Rain - - - - - -
19/02:30am 17.4 CALM 0 2 1015.3 - 32.4 - - - - - - -
19/02:00am 17.7 CALM 0 3 1015.3 - 29.6 - - - - - - -
19/01:30am 17.7 SSW 3 5 1015.1 - 27.4 - - - - - - -
19/01:00am 17.5 E 2 7 1015.4 - 23.6 - - - - - - -
19/12:30am 17.2 SSW 6 8 1015.5 - 23.6 - - - - - - -
19/12:00am 16.9 S 6 9 1016.0 - 23.6 - - - - - - -
 
Date/Time
EST
Temp
°C
Wind Pressure Rain since
9am
mm
Weather Cloud Vis
km
Sea
Height
m
Swell
Dir  Spd
kts
Gust
kts
hPa Trend Height
m
Period
s
Dir
18/11:30pm 16.6 S 5 6 1016.6 - 23.6 - - - - - - -
18/11:00pm 16.4 CALM 0 0 1016.8 - 23.6 - - - - - - -
18/10:30pm 16.4 CALM 0 0 1017.0 - 23.6 - - - - - - -
18/10:00pm 16.5 SW 1 4 1017.3 - 23.6 - - - - - - -

Other Formats:

Comma delimited format used in spreadsheet applications
http://www.bom.gov.au/fwo/IDQ60701/IDQ60701.94570.axf

JavaScript Object Notation format (JSON) in row-major order
http://www.bom.gov.au/fwo/IDQ60701/IDQ60701.94570.json